Tropical Cyclones
[Index]
Main Index Home Page Stock Weather Photos Extreme Storms Discussion Storm News and Storm Chasing Reports Tropical Cyclones / Hurricanes / Typhoons Weather Data and Links Wild Fires / Bushfires Weather Observation Techniques Weather Picture Catalogue Tornado Pictures and Reports Stock Video Footage and DVDs for sale
Season 1963-1964 Tropical Cyclone HENRIETTA Track Map
Season 1963-1964 Summaries: [BoM-AU] [JTWC-AU] [JTWC-SIO] [JTWC-SPAC] [JTWC-SH]
<<- Previous TC | JTWC 1963-1964 Season | Next TC ->>

click for intensity scale information  Lat/long Grid: Show Hide

 Date Labels: Show Hide

Joint Typhoon Warning Centre Cyclone Data

Name: HENRIETTA
Number: 531 / 6429

28 Mar 1964 12:00 UTC to 10 Apr 1964 00:00 UTC

    date/time    lat    long     hPa   cat  kts
1964-03-28 12   12.2   178.2                              
1964-03-28 18   11.6   177.7                              
1964-03-29 00   11.2   176.9                              
1964-03-29 06   11.1   175.8                              
1964-03-29 12   11.2   174.6                              
1964-03-29 18   11.5   173.3                              
1964-03-30 00   12.0   172.0                              
1964-03-30 06   12.7   170.7                              
1964-03-30 12   13.5   169.5                              
1964-03-30 18   14.3   168.3                              
1964-03-31 00   15.1   167.1                              
1964-03-31 06   15.6   166.2                              
1964-03-31 12   16.0   165.3                              
1964-03-31 18   16.3   164.4                              
1964-04-01 00   16.6   163.4                              
1964-04-01 06   17.1   162.3                              
1964-04-01 12   17.7   161.3                              
1964-04-01 18   18.4   160.6                              
1964-04-02 00   19.1   160.0                              
1964-04-02 06   19.7   159.5                              
1964-04-02 12   20.2   159.1                              
1964-04-02 18   20.8   158.9                              
1964-04-03 00   21.5   159.0                              
1964-04-03 06   22.4   159.3                              
1964-04-03 12   23.4   159.6                              
1964-04-03 18   23.9   159.9                              
1964-04-04 00   24.4   160.6                              
1964-04-04 06   25.2   162.0                              
1964-04-04 12   26.0   163.5                              
1964-04-04 18   26.5   164.8                              
1964-04-05 00   27.0   166.0                              
1964-04-05 06   27.4   166.7                              
1964-04-05 12   27.8   167.0                              
1964-04-05 18   28.1   167.2                              
1964-04-06 00   28.5   167.3                              
1964-04-06 06   29.0   167.4                              
1964-04-06 12   29.5   167.5                              
1964-04-06 18   30.0   167.5                              
1964-04-07 00   30.6   167.5                              
1964-04-07 06   31.1   167.5                              
1964-04-07 12   31.7   167.6                              
1964-04-07 18   32.2   167.5                              
1964-04-08 00   32.7   167.8                              
1964-04-08 06   33.3   169.0                              
1964-04-08 12   33.8   170.6                              
1964-04-08 18   33.9   171.9                              
1964-04-09 00   34.0   173.3                              
1964-04-09 06   34.5   174.6                              
1964-04-09 12   35.0   176.0                              
1964-04-09 18   35.4   177.0                              
1964-04-10 00   35.7   177.7                              
Winds are 1-min average.

Tropical cyclone tracks developed by Michael Bath using data from the Joint Typhoon Warning Centre Best Tracks and Google Maps.


[Australian Severe Weather index] [Copyright Notice] [Email Contacts] [Search This Site] [Privacy Policy]
Document: tropical_cyclone_henrietta.htm Updated: 18 September 2016